Time;durP1;ratioP1;P1;durP2;ratioP2;P2;SDS_P1;SDS_P2;PMS_P1;PMS_P2;Temp;Humidity;BMP_temperature;BMP_pressure;BME280_temperature;BME280_humidity;BME280_pressure;Samples;Min_cycle;Max_cycle;Signal;HPM_P1;HPM_P2
2021/12/25 00:01:20;;;;;;;12.60;7.05;;;;;;;12.16;65.06;96027.50;4910603;28;20716;-78
2021/12/25 00:03:50;;;;;;;13.25;6.55;;;;;;;12.21;65.42;96024.03;4910310;28;20167;-78
2021/12/25 00:06:16;;;;;;;11.43;6.93;;;;;;;12.24;65.41;96028.69;4905262;28;20641;-78
2021/12/25 00:08:41;;;;;;;29.27;8.52;;;;;;;12.18;65.08;96023.56;4910323;28;20233;-78
2021/12/25 00:11:08;;;;;;;21.70;7.22;;;;;;;12.17;65.18;96022.00;4890273;28;20281;-78
2021/12/25 00:13:34;;;;;;;18.05;7.47;;;;;;;12.17;65.18;96014.16;4910592;28;20202;-78
2021/12/25 00:16:00;;;;;;;19.85;7.53;;;;;;;12.21;65.40;96016.97;4894429;28;20174;-78
2021/12/25 00:18:25;;;;;;;13.82;7.45;;;;;;;12.27;65.16;96022.91;4909368;28;20256;-78
2021/12/25 00:20:51;;;;;;;12.57;7.20;;;;;;;12.26;65.37;96021.38;4909422;28;20513;-78
2021/12/25 00:23:17;;;;;;;12.13;7.20;;;;;;;12.31;65.36;96021.28;4884497;28;20215;-78
2021/12/25 00:25:47;;;;;;;32.78;8.95;;;;;;;12.30;65.26;96022.34;4873945;28;20692;-78
2021/12/25 00:30:47;;;;;;;21.92;7.72;;;;;;;12.32;64.71;96017.59;4927326;28;20634;-78
2021/12/25 00:33:34;;;;;;;14.93;6.65;;;;;;;12.31;65.27;96013.47;4894071;28;20258;-78
2021/12/25 00:35:59;;;;;;;16.70;6.00;;;;;;;12.33;65.06;96017.31;4889008;28;20396;-78
2021/12/25 00:38:26;;;;;;;12.95;6.82;;;;;;;12.23;65.39;96011.47;4882162;28;20217;-78
2021/12/25 00:40:51;;;;;;;12.57;7.38;;;;;;;12.30;65.13;96012.69;4925440;28;20376;-78
2021/12/25 00:43:17;;;;;;;27.60;8.45;;;;;;;12.28;64.96;96019.25;4893145;28;20292;-78
2021/12/25 00:45:42;;;;;;;12.93;7.18;;;;;;;12.20;65.09;96012.84;4893297;28;20166;-78
2021/12/25 00:48:07;;;;;;;20.90;7.63;;;;;;;12.27;65.32;96018.47;4909205;28;20212;-78
2021/12/25 00:50:33;;;;;;;19.10;7.78;;;;;;;12.25;65.09;96017.19;4874646;28;20185;-78
2021/12/25 00:52:58;;;;;;;17.25;7.70;;;;;;;12.27;64.97;96009.84;4909454;28;20707;-78
2021/12/25 00:55:24;;;;;;;41.70;8.75;;;;;;;12.20;65.35;96010.22;4892958;28;20277;-78
2021/12/25 00:57:49;;;;;;;49.25;9.00;;;;;;;12.26;64.85;96018.75;4891348;28;20275;-78
2021/12/25 01:00:15;;;;;;;15.98;6.70;;;;;;;12.30;64.87;96002.25;4909039;28;20336;-81
2021/12/25 01:02:43;;;;;;;28.77;7.43;;;;;;;12.20;65.59;96012.03;4892852;28;20113;-78
2021/12/25 01:05:09;;;;;;;15.50;6.28;;;;;;;12.32;64.89;96015.00;4890226;28;20558;-77
2021/12/25 01:07:34;;;;;;;28.13;7.30;;;;;;;12.25;65.20;96006.75;4909075;28;20292;-78
2021/12/25 01:10:03;;;;;;;19.65;7.70;;;;;;;12.25;64.86;96006.75;4876772;28;20362;-78
2021/12/25 01:12:34;;;;;;;14.73;5.53;;;;;;;12.26;65.11;96010.94;4884967;28;20170;-78
2021/12/25 01:15:01;;;;;;;32.22;7.57;;;;;;;12.26;65.34;96005.69;4901483;28;20775;-78
2021/12/25 01:17:55;;;;;;;13.10;5.63;;;;;;;12.22;65.25;96002.09;4889633;28;20821;-78
2021/12/25 01:30:59;;;;;;;13.77;6.05;;;;;;;12.18;65.28;95991.44;4904612;28;20284;-78
2021/12/25 01:33:48;;;;;;;27.77;8.10;;;;;;;12.23;65.09;96001.03;4892892;28;20608;-78
2021/12/25 01:39:07;;;;;;;11.02;5.45;;;;;;;12.24;65.24;95989.56;4905411;28;20192;-78
2021/12/25 01:49:37;;;;;;;8.27;4.90;;;;;;;12.30;65.59;95994.41;4891243;28;20691;-78
2021/12/25 01:52:04;;;;;;;7.82;4.55;;;;;;;12.29;65.51;95992.09;4891457;28;20280;-78
2021/12/25 01:54:30;;;;;;;12.35;5.07;;;;;;;12.30;65.46;95996.25;4890160;28;20237;-78
2021/12/25 01:56:59;;;;;;;9.40;4.32;;;;;;;12.20;65.09;95985.94;4872125;28;20259;-78
2021/12/25 01:59:26;;;;;;;10.82;5.28;;;;;;;12.24;65.44;95981.72;4916496;28;20237;-78
2021/12/25 02:01:51;;;;;;;11.32;4.57;;;;;;;12.31;65.32;95982.91;4921310;28;20158;-78
2021/12/25 02:04:17;;;;;;;9.35;5.05;;;;;;;12.31;65.50;95982.13;4885056;28;20245;-78
2021/12/25 02:06:42;;;;;;;8.93;4.75;;;;;;;12.30;65.46;95980.56;4920748;28;20309;-81
2021/12/25 02:09:08;;;;;;;12.13;5.22;;;;;;;12.30;65.64;95985.81;4903283;28;20205;-81
2021/12/25 02:11:34;;;;;;;8.45;4.88;;;;;;;12.31;65.63;95982.13;4917994;28;20330;-81
2021/12/25 02:13:59;;;;;;;9.07;4.90;;;;;;;12.31;65.32;95975.06;4904678;28;20149;-81
2021/12/25 02:16:30;;;;;;;10.52;5.70;;;;;;;12.34;65.27;95973.75;4889698;28;20197;-78
2021/12/25 02:19:00;;;;;;;11.50;6.30;;;;;;;12.33;64.96;95969.56;4890226;28;20232;-79
2021/12/25 02:21:37;;;;;;;10.32;5.60;;;;;;;12.37;65.24;95970.53;4921855;28;20673;-78
2021/12/25 02:24:11;;;;;;;9.30;5.10;;;;;;;12.19;65.07;95966.91;4924160;28;20193;-78
2021/12/25 02:26:39;;;;;;;11.10;5.93;;;;;;;12.27;65.07;95979.31;4903415;28;20274;-78
2021/12/25 02:29:05;;;;;;;10.98;5.75;;;;;;;12.33;65.35;95969.56;4905384;28;20184;-78
2021/12/25 02:31:31;;;;;;;11.65;6.30;;;;;;;12.31;65.31;95977.69;4901096;28;20285;-78
2021/12/25 02:33:57;;;;;;;11.85;6.25;;;;;;;12.33;65.39;95972.19;4904436;28;20608;-78
2021/12/25 02:36:22;;;;;;;12.18;7.05;;;;;;;12.30;65.13;95963.09;4871943;28;20276;-81
2021/12/25 02:38:48;;;;;;;12.80;7.07;;;;;;;12.30;65.44;95970.13;4934760;28;20275;-81
2021/12/25 02:41:14;;;;;;;10.93;6.57;;;;;;;12.33;65.19;95969.56;4888790;28;20312;-81
2021/12/25 02:43:43;;;;;;;14.60;7.40;;;;;;;12.29;65.12;95968.59;4920996;28;20272;-78
2021/12/25 02:46:08;;;;;;;13.52;7.38;;;;;;;12.33;65.13;95961.75;4907925;28;20648;-78
2021/12/25 02:48:36;;;;;;;16.33;7.15;;;;;;;12.27;65.54;95955.03;4891889;28;20220;-78
2021/12/25 02:51:03;;;;;;;12.07;6.70;;;;;;;12.30;65.42;95960.50;4891996;28;20639;-78
2021/12/25 02:53:28;;;;;;;13.15;6.85;;;;;;;12.29;65.16;95952.94;4907669;28;20212;-78
2021/12/25 02:55:53;;;;;;;13.25;7.57;;;;;;;12.28;65.41;95951.38;4875611;28;20241;-78
2021/12/25 02:58:19;;;;;;;12.50;7.22;;;;;;;12.30;65.04;95951.88;4876034;28;20283;-78
2021/12/25 03:00:52;;;;;;;13.23;7.55;;;;;;;12.15;65.44;95943.22;4891809;28;20266;-81
2021/12/25 03:03:18;;;;;;;13.55;6.57;;;;;;;12.34;65.03;95939.81;4895408;28;20665;-80
2021/12/25 03:05:43;;;;;;;11.85;6.75;;;;;;;12.29;65.24;95927.63;4895046;28;20281;-81
2021/12/25 03:08:10;;;;;;;10.57;6.20;;;;;;;12.27;65.20;95940.19;4895597;28;20293;-81
2021/12/25 03:10:37;;;;;;;11.73;6.88;;;;;;;12.30;65.10;95926.56;4911664;28;20248;-81
2021/12/25 03:15:45;;;;;;;10.60;5.90;;;;;;;12.26;65.14;95917.75;4915226;28;20201;-81
2021/12/25 03:18:19;;;;;;;9.82;6.30;;;;;;;12.37;65.47;95931.38;4913819;28;20680;-78
2021/12/25 03:20:46;;;;;;;12.00;6.90;;;;;;;12.39;65.15;95934.50;4895444;28;20197;-78
2021/12/25 03:23:14;;;;;;;13.45;6.38;;;;;;;12.35;65.11;95934.31;4911707;28;20278;-78
2021/12/25 03:25:40;;;;;;;12.05;6.22;;;;;;;12.34;64.98;95940.59;4895309;28;20319;-78
2021/12/25 03:28:06;;;;;;;10.38;6.28;;;;;;;12.32;65.26;95934.88;4896027;28;20181;-78
2021/12/25 03:30:36;;;;;;;9.80;5.57;;;;;;;12.35;65.18;95936.13;4894892;28;20359;-78
2021/12/25 03:33:03;;;;;;;10.73;6.03;;;;;;;12.26;65.27;95930.03;4895918;28;20268;-78
2021/12/25 03:35:28;;;;;;;13.27;7.13;;;;;;;12.25;65.42;95926.66;4889580;28;20730;-78
2021/12/25 03:37:54;;;;;;;12.93;6.55;;;;;;;12.27;65.21;95921.91;4894950;28;20281;-78
2021/12/25 03:40:19;;;;;;;12.48;6.85;;;;;;;12.24;65.07;95919.88;4911158;28;20258;-78
2021/12/25 03:42:45;;;;;;;10.98;5.68;;;;;;;12.24;65.34;95919.88;4911456;28;20400;-78
2021/12/25 03:45:10;;;;;;;10.07;6.00;;;;;;;12.29;65.53;95926.84;4894670;28;20265;-78
2021/12/25 03:47:38;;;;;;;11.27;6.28;;;;;;;12.27;65.05;95919.31;4895742;28;20279;-78
2021/12/25 03:58:25;;;;;;;10.85;5.82;;;;;;;12.28;65.41;95914.84;4913807;28;20227;-78
2021/12/25 04:00:51;;;;;;;11.68;7.00;;;;;;;12.28;65.26;95920.06;4898429;28;20275;-78
2021/12/25 04:03:43;;;;;;;11.77;6.47;;;;;;;12.23;65.57;95910.47;4910546;28;20190;-78
2021/12/25 04:06:08;;;;;;;11.68;6.05;;;;;;;12.29;65.29;95916.41;4912233;28;20196;-78
2021/12/25 04:08:41;;;;;;;11.93;6.85;;;;;;;12.23;65.02;95910.47;4910954;28;20129;-78
2021/12/25 04:11:12;;;;;;;10.63;5.93;;;;;;;12.29;65.22;95911.19;4916453;28;20179;-78
2021/12/25 04:13:38;;;;;;;9.65;5.78;;;;;;;12.30;65.45;95905.69;4910032;28;20649;-78
2021/12/25 04:16:03;;;;;;;10.30;5.93;;;;;;;12.25;65.44;95905.78;4907946;28;20077;-78
2021/12/25 04:18:29;;;;;;;11.02;6.03;;;;;;;12.27;65.34;95908.88;4910295;28;20170;-78
2021/12/25 04:20:54;;;;;;;9.25;5.32;;;;;;;12.35;65.09;95915.25;4903849;28;20186;-78
2021/12/25 04:23:24;;;;;;;12.23;6.63;;;;;;;12.30;65.03;95915.31;4894073;28;20171;-78
2021/12/25 04:25:50;;;;;;;10.00;5.75;;;;;;;12.21;65.39;95906.63;4905061;28;20167;-78
2021/12/25 04:28:33;;;;;;;10.18;5.82;;;;;;;12.24;65.27;95914.66;4901627;28;20262;-78
2021/12/25 05:03:41;;;;;;;6.80;4.10;;;;;;;12.35;65.25;95910.03;4912064;28;20337;-78
2021/12/25 05:06:07;;;;;;;5.28;3.42;;;;;;;12.31;65.50;95909.06;4904477;28;20719;-78
2021/12/25 05:08:32;;;;;;;6.22;3.75;;;;;;;12.25;65.42;95907.59;4889871;28;20273;-78
2021/12/25 05:10:58;;;;;;;6.40;4.10;;;;;;;12.26;65.55;95907.31;4909544;28;20205;-81
2021/12/25 05:13:23;;;;;;;6.03;3.47;;;;;;;12.28;65.59;95904.41;4909249;28;20663;-81
2021/12/25 05:15:49;;;;;;;5.15;3.42;;;;;;;12.34;65.25;95903.28;4908794;28;20705;-81
2021/12/25 05:18:15;;;;;;;5.65;3.35;;;;;;;12.36;65.44;95895.94;4877611;28;20194;-81
2021/12/25 05:20:41;;;;;;;5.65;3.63;;;;;;;12.32;65.21;95900.94;4903916;28;20281;-81
2021/12/25 05:23:06;;;;;;;5.28;4.15;;;;;;;12.31;65.46;95898.63;4914316;28;20703;-81
2021/12/25 05:25:33;;;;;;;4.43;2.85;;;;;;;12.37;65.17;95892.25;4926197;28;20328;-81
2021/12/25 05:28:00;;;;;;;4.85;2.88;;;;;;;12.28;65.85;95897.34;4892991;28;20193;-81
2021/12/25 05:30:26;;;;;;;4.40;3.10;;;;;;;12.34;65.27;95892.84;4908907;28;20656;-81
2021/12/25 05:32:52;;;;;;;3.97;2.90;;;;;;;12.39;65.21;95900.59;4908344;28;20365;-81
2021/12/25 05:35:17;;;;;;;3.65;2.70;;;;;;;12.35;65.19;95899.59;4907188;28;20414;-81
2021/12/25 05:37:42;;;;;;;3.85;2.38;;;;;;;12.35;65.74;95889.16;4908415;28;20175;-81
2021/12/25 05:40:09;;;;;;;4.20;2.22;;;;;;;12.31;65.38;95888.19;4877150;28;20167;-81
2021/12/25 05:42:35;;;;;;;3.95;1.95;;;;;;;12.38;65.48;95888.56;4909009;28;20253;-81
2021/12/25 05:45:00;;;;;;;3.78;2.30;;;;;;;12.43;65.47;95887.72;4887484;28;20285;-81
2021/12/25 05:47:26;;;;;;;2.83;1.80;;;;;;;12.42;65.34;95886.94;4926546;28;20222;-81
2021/12/25 05:49:52;;;;;;;4.22;2.38;;;;;;;12.40;64.94;95889.06;4912305;28;20202;-81
2021/12/25 05:52:17;;;;;;;2.90;2.17;;;;;;;12.38;65.51;95893.81;4897528;28;20326;-81
2021/12/25 05:54:43;;;;;;;3.03;2.53;;;;;;;12.42;65.48;95894.75;4908402;28;20178;-81
2021/12/25 05:57:08;;;;;;;4.18;2.13;;;;;;;12.42;65.33;95888.78;4908260;28;20193;-81
2021/12/25 05:59:34;;;;;;;4.68;2.80;;;;;;;12.42;65.77;95889.53;4877321;28;20385;-82
2021/12/25 06:01:59;;;;;;;5.15;3.60;;;;;;;12.46;65.50;95890.53;4906923;28;20117;-81
2021/12/25 06:04:25;;;;;;;4.43;3.08;;;;;;;12.45;65.26;95898.66;4871142;28;20640;-78
2021/12/25 06:06:50;;;;;;;10.05;4.10;;;;;;;12.41;65.42;95897.69;4891014;28;20214;-78
2021/12/25 06:09:16;;;;;;;6.70;4.35;;;;;;;12.33;65.54;95905.09;4907944;28;20625;-78
2021/12/25 06:11:41;;;;;;;6.43;3.88;;;;;;;12.44;65.47;95908.31;4897924;28;20194;-78
2021/12/25 06:14:16;;;;;;;8.43;4.70;;;;;;;12.47;65.22;95912.94;4891694;28;20205;-78
2021/12/25 06:16:41;;;;;;;8.90;5.28;;;;;;;12.51;65.31;95903.50;4896659;28;20369;-81
2021/12/25 06:19:06;;;;;;;9.27;5.97;;;;;;;12.46;65.52;95900.97;4891541;28;20248;-81
2021/12/25 06:21:32;;;;;;;10.18;5.57;;;;;;;12.55;65.21;95907.06;4886296;28;20190;-81
2021/12/25 06:24:00;;;;;;;10.18;5.93;;;;;;;12.58;65.27;95908.34;4875823;28;20211;-81
2021/12/25 06:26:26;;;;;;;11.40;6.63;;;;;;;12.54;65.61;95904.75;4907672;28;20233;-81
2021/12/25 06:28:51;;;;;;;10.70;6.50;;;;;;;12.62;65.14;95916.38;4907489;28;20238;-81
2021/12/25 06:31:16;;;;;;;11.50;6.88;;;;;;;12.60;65.55;95915.91;4869122;28;20222;-81
2021/12/25 06:33:42;;;;;;;13.05;7.93;;;;;;;12.69;65.08;95914.16;4889995;28;20280;-81
2021/12/25 06:36:07;;;;;;;10.82;6.88;;;;;;;12.71;64.84;95920.66;4876931;28;20598;-80
2021/12/25 06:38:32;;;;;;;13.38;7.65;;;;;;;12.53;65.09;95913.66;4893122;28;20250;-81
2021/12/25 06:40:58;;;;;;;11.52;7.07;;;;;;;12.54;65.54;95918.59;4926197;28;20200;-81
2021/12/25 06:43:23;;;;;;;14.05;7.43;;;;;;;12.66;65.27;95922.56;4896182;28;20608;-81
2021/12/25 06:45:49;;;;;;;13.55;8.43;;;;;;;12.45;65.92;95920.31;4886264;28;20715;-81
2021/12/25 06:48:14;;;;;;;14.30;8.48;;;;;;;12.65;65.26;95926.25;4899410;28;20174;-81
2021/12/25 06:50:39;;;;;;;13.00;8.18;;;;;;;12.68;65.37;95925.66;4895273;28;20295;-81
2021/12/25 06:53:05;;;;;;;14.10;7.68;;;;;;;12.63;65.38;95930.97;4911231;28;20225;-81
2021/12/25 06:55:30;;;;;;;11.85;7.47;;;;;;;12.68;65.72;95933.50;4928765;28;20107;-81
2021/12/25 06:57:57;;;;;;;13.77;8.18;;;;;;;12.68;65.18;95934.28;4911083;28;20158;-81
2021/12/25 07:00:24;;;;;;;17.13;8.05;;;;;;;12.67;65.24;95937.94;4907336;28;20278;-78
2021/12/25 07:02:49;;;;;;;14.48;8.38;;;;;;;12.61;65.15;95935.72;4898243;28;20288;-78
2021/12/25 07:05:15;;;;;;;13.93;8.77;;;;;;;12.64;65.17;95935.91;4938256;28;20299;-78
2021/12/25 07:07:40;;;;;;;14.23;8.70;;;;;;;12.67;65.39;95932.72;4896058;28;20198;-78
2021/12/25 07:10:06;;;;;;;15.57;9.27;;;;;;;12.63;65.85;95941.41;4896044;28;20206;-80
2021/12/25 07:12:36;;;;;;;15.70;9.05;;;;;;;12.67;64.95;95947.63;4911533;28;20227;-81
2021/12/25 07:15:06;;;;;;;15.50;9.38;;;;;;;12.63;65.84;95941.41;4880384;28;20609;-81
2021/12/25 07:17:31;;;;;;;15.55;9.55;;;;;;;12.57;65.56;95948.56;4886732;28;20162;-80
2021/12/25 07:19:57;;;;;;;18.88;9.85;;;;;;;12.74;65.54;95950.63;4880211;28;20702;-81
2021/12/25 07:22:22;;;;;;;17.65;9.25;;;;;;;12.79;65.42;95947.94;4907071;28;20210;-80
2021/12/25 07:24:47;;;;;;;18.67;11.00;;;;;;;12.81;65.54;95952.88;4924788;28;20702;-80
2021/12/25 07:27:13;;;;;;;15.82;9.25;;;;;;;12.84;64.93;95954.91;4910056;28;20213;-80
2021/12/25 07:29:38;;;;;;;18.35;10.35;;;;;;;12.70;65.37;95960.13;4895579;28;20189;-81
2021/12/25 07:32:04;;;;;;;17.27;9.50;;;;;;;12.77;65.32;95957.91;4895573;28;20639;-80
2021/12/25 07:34:29;;;;;;;19.50;10.93;;;;;;;12.79;65.58;95973.28;4908342;28;20214;-78
2021/12/25 07:36:54;;;;;;;19.65;10.75;;;;;;;12.76;65.80;95969.41;4905728;28;20182;-78
2021/12/25 07:39:20;;;;;;;18.45;10.18;;;;;;;12.74;65.66;95969.69;4911003;28;20217;-78
2021/12/25 07:41:45;;;;;;;14.93;8.75;;;;;;;12.77;65.01;95972.81;4894125;28;20107;-78
2021/12/25 07:44:11;;;;;;;18.08;9.95;;;;;;;12.73;65.55;95962.91;4911056;28;20221;-78
2021/12/25 07:46:36;;;;;;;17.77;9.80;;;;;;;12.76;65.95;95966.00;4910461;28;20327;-77
2021/12/25 07:49:04;;;;;;;18.63;9.75;;;;;;;12.57;66.30;95968.69;4910159;28;20194;-79
2021/12/25 07:51:29;;;;;;;17.42;9.55;;;;;;;12.51;66.08;95976.59;4910957;28;20205;-79
2021/12/25 07:53:55;;;;;;;16.63;9.45;;;;;;;12.76;65.89;95986.91;4879415;28;20279;-78
2021/12/25 07:56:25;;;;;;;13.65;9.10;;;;;;;12.79;66.02;95987.09;4894916;28;20140;-81
2021/12/25 07:58:51;;;;;;;15.15;8.30;;;;;;;12.79;64.91;95984.50;4896261;28;20715;-80
2021/12/25 08:01:17;;;;;;;15.73;9.20;;;;;;;12.81;65.67;95992.81;4910704;28;20651;-81
2021/12/25 08:03:42;;;;;;;15.73;8.93;;;;;;;12.87;65.46;95989.06;4910896;28;20288;-81
2021/12/25 08:06:07;;;;;;;14.88;8.95;;;;;;;12.83;65.68;95995.91;4905144;28;20159;-81
2021/12/25 08:08:33;;;;;;;14.93;8.45;;;;;;;12.61;65.97;95995.75;4891331;28;20185;-82
2021/12/25 08:10:58;;;;;;;11.80;7.07;;;;;;;12.91;64.55;95994.50;4895257;28;20323;-81
2021/12/25 08:13:24;;;;;;;11.38;7.15;;;;;;;12.77;65.97;95993.69;4916840;28;20566;-81
2021/12/25 08:15:49;;;;;;;13.57;7.88;;;;;;;12.84;65.10;95984.41;4894881;28;20299;-81
2021/12/25 08:18:15;;;;;;;13.80;7.25;;;;;;;12.92;64.42;95985.59;4897198;28;20178;-80
2021/12/25 08:20:40;;;;;;;11.38;7.00;;;;;;;12.89;64.48;95989.53;4905690;28;20273;-80
2021/12/25 08:23:07;;;;;;;12.00;7.55;;;;;;;12.93;64.92;95992.34;4909726;28;20587;-78
2021/12/25 08:25:32;;;;;;;10.88;6.45;;;;;;;12.90;64.69;95993.72;4916454;28;20378;-78
2021/12/25 08:27:58;;;;;;;14.50;7.25;;;;;;;12.93;65.25;95994.97;4898634;28;20640;-78
2021/12/25 08:30:26;;;;;;;11.02;7.15;;;;;;;12.96;64.78;95996.25;4910071;28;20643;-78
2021/12/25 08:32:55;;;;;;;12.52;7.45;;;;;;;12.90;65.07;95998.16;4911046;28;20620;-78
2021/12/25 08:35:22;;;;;;;13.48;8.02;;;;;;;12.93;65.08;96002.81;4901007;28;20765;-78
2021/12/25 08:37:48;;;;;;;12.88;7.55;;;;;;;12.99;65.18;96000.88;4900814;28;20674;-78
2021/12/25 08:40:14;;;;;;;12.23;8.00;;;;;;;13.02;64.90;96002.91;4910191;28;20221;-78
2021/12/25 08:42:45;;;;;;;12.57;7.90;;;;;;;13.00;64.86;96007.66;4909036;28;20115;-78
2021/12/25 08:45:30;;;;;;;13.68;8.05;;;;;;;13.00;64.88;96003.19;4879049;28;20659;-78
2021/12/25 08:47:55;;;;;;;13.70;8.10;;;;;;;13.04;64.98;96004.19;4916817;28;20201;-78
2021/12/25 08:50:21;;;;;;;11.70;8.07;;;;;;;13.08;65.18;96004.38;4919445;28;20430;-78
2021/12/25 08:52:46;;;;;;;12.02;7.70;;;;;;;13.00;64.09;96002.44;4880917;28;20278;-78
2021/12/25 08:55:11;;;;;;;13.65;8.27;;;;;;;12.96;64.66;96004.84;4919162;28;20789;-78
2021/12/25 08:57:37;;;;;;;11.65;7.63;;;;;;;12.95;65.10;95999.91;4892832;28;20096;-78
2021/12/25 09:00:03;;;;;;;13.93;8.25;;;;;;;12.93;65.03;96002.81;4892503;28;20190;-78
2021/12/25 09:02:29;;;;;;;13.48;8.32;;;;;;;12.97;64.93;96008.22;4881475;28;20381;-77
2021/12/25 09:04:54;;;;;;;13.65;8.65;;;;;;;13.00;65.43;96012.88;4893946;28;20209;-78
2021/12/25 09:07:20;;;;;;;16.13;9.40;;;;;;;13.00;65.28;96016.25;4877429;28;20208;-78
2021/12/25 09:09:45;;;;;;;15.38;9.27;;;;;;;12.89;64.91;96012.28;4893280;28;20411;-78
2021/12/25 09:12:14;;;;;;;12.35;8.27;;;;;;;12.98;64.54;96013.16;4904269;28;20163;-78
2021/12/25 09:14:40;;;;;;;14.57;8.90;;;;;;;12.96;65.27;96012.69;4904574;28;20652;-78
2021/12/25 09:17:08;;;;;;;15.02;8.68;;;;;;;12.92;64.26;96017.72;4893397;28;20196;-78
2021/12/25 09:19:33;;;;;;;14.32;9.38;;;;;;;13.00;64.77;96023.34;4891242;28;20585;-78
2021/12/25 09:21:59;;;;;;;15.75;9.65;;;;;;;12.88;65.09;96021.94;4900399;28;20206;-78
2021/12/25 09:24:25;;;;;;;13.60;8.60;;;;;;;13.02;64.82;96022.00;4893353;28;20287;-78
2021/12/25 09:26:50;;;;;;;15.75;9.40;;;;;;;13.04;64.85;96029.53;4896699;28;20186;-78
2021/12/25 09:29:16;;;;;;;15.13;9.50;;;;;;;13.07;65.03;96034.19;4888509;28;20308;-78
2021/12/25 09:31:41;;;;;;;15.40;9.35;;;;;;;13.07;64.83;96037.59;4893028;28;20239;-78
2021/12/25 09:34:07;;;;;;;14.90;9.63;;;;;;;13.04;64.93;96032.13;4885238;28;20167;-78
2021/12/25 09:36:33;;;;;;;14.13;8.75;;;;;;;13.08;65.00;96038.34;4900259;28;20284;-78
2021/12/25 09:38:58;;;;;;;16.98;10.25;;;;;;;13.07;65.07;96034.97;4890345;28;20218;-78
2021/12/25 09:41:24;;;;;;;16.70;9.88;;;;;;;13.10;64.81;96042.22;4904041;28;20162;-78
2021/12/25 09:43:49;;;;;;;15.68;10.18;;;;;;;13.04;65.29;96043.38;4901393;28;20496;-78
2021/12/25 09:46:20;;;;;;;18.48;10.13;;;;;;;12.96;65.39;96044.03;4888144;28;20178;-78
2021/12/25 09:48:47;;;;;;;16.15;9.52;;;;;;;13.07;64.98;96036.78;4904568;28;20288;-78
2021/12/25 09:51:13;;;;;;;15.55;9.55;;;;;;;13.08;65.08;96040.97;4888718;28;20383;-78
2021/12/25 09:53:39;;;;;;;13.95;9.20;;;;;;;13.15;64.39;96036.13;4903924;28;20268;-78
2021/12/25 09:56:05;;;;;;;14.88;8.90;;;;;;;13.15;64.45;96041.38;4892411;28;20233;-78
2021/12/25 09:58:30;;;;;;;14.13;8.95;;;;;;;13.13;64.78;96046.09;4908802;28;20284;-78
2021/12/25 10:00:57;;;;;;;16.65;8.63;;;;;;;12.99;65.40;96048.69;4926559;28;20183;-78
2021/12/25 10:03:24;;;;;;;17.00;8.93;;;;;;;12.84;65.37;96051.56;4902661;28;20209;-78
2021/12/25 10:05:50;;;;;;;15.05;9.45;;;;;;;13.04;65.43;96050.44;4892559;28;20299;-78
2021/12/25 10:08:22;;;;;;;14.02;8.68;;;;;;;13.00;64.75;96052.06;4889127;28;20201;-78
2021/12/25 10:10:50;;;;;;;15.43;9.43;;;;;;;13.02;64.61;96057.78;4890005;28;20209;-78
2021/12/25 10:13:37;;;;;;;14.30;8.73;;;;;;;12.85;65.03;96055.72;4923232;28;20244;-78
2021/12/25 10:16:25;;;;;;;15.20;8.70;;;;;;;12.90;65.02;96053.00;4905337;28;20206;-78
2021/12/25 10:18:54;;;;;;;13.73;8.15;;;;;;;13.07;65.09;96047.25;4914890;28;20201;-78
2021/12/25 10:21:23;;;;;;;14.68;9.35;;;;;;;13.16;64.79;96048.16;4906786;28;20647;-78
2021/12/25 10:24:12;;;;;;;15.88;9.60;;;;;;;12.96;65.26;96049.25;4891857;28;20199;-78
2021/12/25 10:26:39;;;;;;;17.90;9.30;;;;;;;13.19;64.29;96041.56;4916189;28;20292;-78
2021/12/25 10:29:34;;;;;;;12.48;7.85;;;;;;;12.95;65.49;96049.56;4891883;28;20225;-78
2021/12/25 10:32:14;;;;;;;15.73;8.97;;;;;;;13.06;65.13;96037.88;4912435;28;20655;-78
2021/12/25 10:34:39;;;;;;;13.95;8.57;;;;;;;13.32;64.66;96042.69;4868204;28;20367;-78
2021/12/25 10:37:08;;;;;;;15.55;8.77;;;;;;;13.17;64.95;96038.47;4907120;28;20265;-78
2021/12/25 10:39:33;;;;;;;13.63;8.30;;;;;;;13.21;64.79;96040.22;4891926;28;20291;-78
2021/12/25 10:42:10;;;;;;;12.38;8.30;;;;;;;13.15;65.02;96037.97;4892340;28;20178;-78
2021/12/25 10:44:39;;;;;;;13.32;7.60;;;;;;;13.11;65.04;96033.31;4889381;28;20572;-78
2021/12/25 10:47:08;;;;;;;14.98;8.23;;;;;;;13.15;65.04;96036.13;4920037;28;20705;-78
2021/12/25 10:49:38;;;;;;;10.73;6.88;;;;;;;13.20;64.70;96037.88;4913404;28;20202;-78
2021/12/25 10:52:27;;;;;;;12.18;7.45;;;;;;;12.97;65.17;96039.59;4908369;28;20210;-78
2021/12/25 10:54:56;;;;;;;13.65;8.38;;;;;;;13.17;64.73;96038.47;4889345;28;20107;-78
2021/12/25 10:57:45;;;;;;;12.38;7.25;;;;;;;13.06;65.33;96040.50;4884320;28;20279;-78
2021/12/25 11:00:25;;;;;;;12.98;8.07;;;;;;;13.13;64.77;96038.25;4907959;28;20278;-78
2021/12/25 11:02:57;;;;;;;15.20;7.93;;;;;;;13.19;64.73;96031.88;4904838;28;20229;-78
2021/12/25 11:05:24;;;;;;;11.90;7.20;;;;;;;13.22;65.15;96036.53;4892016;28;20648;-78
2021/12/25 11:08:11;;;;;;;14.73;8.18;;;;;;;13.06;65.32;96032.66;4873643;28;20725;-78
2021/12/25 11:10:54;;;;;;;15.30;7.55;;;;;;;13.07;64.91;96031.56;4906357;28;20742;-78
2021/12/25 11:13:41;;;;;;;13.63;7.72;;;;;;;13.24;64.39;96033.63;4918607;28;20271;-78
2021/12/25 11:16:08;;;;;;;14.15;9.05;;;;;;;13.29;64.73;96034.31;4923348;28;20201;-78
2021/12/25 11:19:05;;;;;;;13.57;8.10;;;;;;;13.05;64.41;96028.47;4904415;28;20382;-78
2021/12/25 11:21:55;;;;;;;14.07;9.02;;;;;;;13.02;64.52;96034.28;4888684;28;20332;-78
2021/12/25 11:24:24;;;;;;;15.20;8.60;;;;;;;13.14;64.47;96031.97;4908515;28;20194;-78
2021/12/25 11:26:56;;;;;;;13.70;8.15;;;;;;;13.16;65.21;96027.25;4901242;28;20331;-77
2021/12/25 11:29:25;;;;;;;13.73;8.73;;;;;;;13.03;65.06;96033.22;4941832;28;20279;-78
2021/12/25 11:31:51;;;;;;;13.85;8.55;;;;;;;13.23;64.81;96032.06;4901778;28;20275;-78
2021/12/25 11:34:18;;;;;;;17.00;9.32;;;;;;;13.23;64.53;96032.84;4914818;28;20253;-78
2021/12/25 11:36:48;;;;;;;16.00;8.90;;;;;;;13.15;64.45;96027.53;4908403;28;20193;-78
2021/12/25 11:39:15;;;;;;;13.40;8.15;;;;;;;13.22;65.06;96023.47;4903862;28;20096;-78
2021/12/25 11:41:41;;;;;;;12.85;7.88;;;;;;;13.29;64.89;96018.63;4915852;28;20752;-78
2021/12/25 11:44:34;;;;;;;12.82;7.05;;;;;;;13.05;64.77;96016.16;4900415;28;20053;-78
2021/12/25 11:47:00;;;;;;;13.55;8.25;;;;;;;13.29;64.19;96021.22;4919635;28;20033;-78
2021/12/25 11:49:26;;;;;;;11.73;7.40;;;;;;;13.37;64.47;96008.59;4903347;28;20037;-78
2021/12/25 11:51:52;;;;;;;14.05;8.65;;;;;;;13.39;64.76;96009.84;4902436;28;20079;-78
2021/12/25 11:54:55;;;;;;;11.93;8.32;;;;;;;13.26;64.40;96005.34;4910094;28;20030;-78
2021/12/25 11:59:52;;;;;;;13.00;8.07;;;;;;;13.27;64.15;96005.06;4918136;28;20698;-78
2021/12/25 12:02:35;;;;;;;12.63;8.27;;;;;;;13.34;64.58;96006.56;4887525;28;20022;-78
2021/12/25 12:05:29;;;;;;;11.35;7.97;;;;;;;13.30;64.85;95998.50;4930915;28;20041;-78
2021/12/25 12:08:09;;;;;;;12.20;7.18;;;;;;;13.41;63.90;95999.09;4917618;28;20905;-78
2021/12/25 12:10:44;;;;;;;11.63;7.28;;;;;;;13.29;64.27;95999.56;4884645;28;20062;-78
2021/12/25 12:13:23;;;;;;;12.40;7.30;;;;;;;13.25;64.66;95999.38;4936504;28;20109;-78
2021/12/25 12:15:50;;;;;;;13.95;7.50;;;;;;;13.40;64.24;95997.53;4917268;28;20774;-78
2021/12/25 12:18:25;;;;;;;12.45;7.22;;;;;;;13.24;64.30;96003.03;4918342;28;20040;-78
2021/12/25 12:20:52;;;;;;;13.30;7.15;;;;;;;13.48;63.82;95991.63;4923071;28;20787;-78
2021/12/25 12:23:40;;;;;;;11.20;6.82;;;;;;;13.23;64.70;95991.03;4918226;28;20843;-78
2021/12/25 12:26:09;;;;;;;11.68;6.85;;;;;;;13.47;64.01;95987.50;4934358;28;20721;-78
2021/12/25 12:28:52;;;;;;;8.55;5.65;;;;;;;13.18;63.64;95996.38;4913661;28;20194;-78
2021/12/25 12:31:47;;;;;;;8.88;5.78;;;;;;;13.18;64.18;95996.38;4911952;28;20022;-78
2021/12/25 12:34:40;;;;;;;8.70;5.70;;;;;;;13.21;63.96;95995.00;4898094;28;20037;-78
2021/12/25 12:37:15;;;;;;;8.95;6.32;;;;;;;13.27;63.87;95994.63;4875917;28;20046;-78
2021/12/25 12:39:44;;;;;;;8.77;5.15;;;;;;;13.41;63.95;95999.88;4903236;28;20028;-78
2021/12/25 12:42:13;;;;;;;9.02;5.45;;;;;;;13.50;63.77;95994.72;4899237;28;20041;-79
2021/12/25 12:44:39;;;;;;;8.15;5.60;;;;;;;13.42;63.84;95992.81;4902361;28;20093;-78